Wetterdaten: Sonntag, 06.03.2016
Datum Zeit Auen-Temp. Temp gefhlt Luftfeuchte Luftdruck Regen Wind Richtung Richtung Sonnenschein Taupunkt Windben
06.03.2016 00:00 0,0 C -0,2 C 90 % 997,5 hPa 0,0 mm 0,0 km/h (0 Bft) W-SW 247 0 min -1,4 C 0,0 km/h (0 Bft)
06.03.2016 00:05 0,0 C -0,2 C 90 % 997,5 hPa 0,0 mm 0,0 km/h (0 Bft) W-SW 247 0 min -1,4 C 0,0 km/h (0 Bft)
06.03.2016 00:10 0,0 C -0,1 C 86 % 997,5 hPa 0,0 mm 0,0 km/h (0 Bft) W-SW 247 0 min -2,1 C 0,0 km/h (0 Bft)
06.03.2016 00:15 0,0 C -0,1 C 86 % 997,5 hPa 0,0 mm 0,0 km/h (0 Bft) W-SW 247 0 min -2,1 C 0,0 km/h (0 Bft)
06.03.2016 00:16 0,0 C -0,1 C 86 % 997,5 hPa 0,0 mm 0,0 km/h (0 Bft) W-SW 247 0 min -2,1 C 0,0 km/h (0 Bft)
06.03.2016 00:20 0,0 C -0,2 C 90 % 997,5 hPa 0,0 mm 0,0 km/h (0 Bft) W-SW 247 0 min -1,4 C 0,0 km/h (0 Bft)
06.03.2016 00:25 0,0 C -0,2 C 90 % 997,5 hPa 0,0 mm 0,0 km/h (0 Bft) W-SW 247 0 min -1,4 C 0,0 km/h (0 Bft)
06.03.2016 00:30 -0,1 C -0,3 C 90 % 997,8 hPa 0,0 mm 0,0 km/h (0 Bft) W-SW 247 0 min -1,5 C 0,0 km/h (0 Bft)
06.03.2016 00:35 -0,1 C -0,3 C 90 % 997,8 hPa 0,0 mm 0,0 km/h (0 Bft) W-SW 247 0 min -1,5 C 0,0 km/h (0 Bft)
06.03.2016 00:40 -0,1 C -0,3 C 90 % 997,8 hPa 0,0 mm 0,0 km/h (0 Bft) W-SW 247 0 min -1,5 C 0,0 km/h (0 Bft)
06.03.2016 00:45 -0,1 C -0,3 C 90 % 997,8 hPa 0,0 mm 0,0 km/h (0 Bft) W-SW 247 0 min -1,5 C 0,0 km/h (0 Bft)
06.03.2016 00:50 -0,2 C -0,4 C 90 % 998,0 hPa 0,0 mm 0,0 km/h (0 Bft) W-SW 247 0 min -1,6 C 0,0 km/h (0 Bft)
06.03.2016 00:55 -0,2 C -0,4 C 90 % 998,0 hPa 0,0 mm 0,0 km/h (0 Bft) W-SW 247 0 min -1,6 C 0,0 km/h (0 Bft)
06.03.2016 01:00 -0,2 C -0,4 C 90 % 998,0 hPa 0,0 mm 0,0 km/h (0 Bft) W-SW 247 0 min -1,6 C 0,0 km/h (0 Bft)
06.03.2016 01:05 -0,2 C -0,3 C 86 % 998,0 hPa 0,0 mm 0,0 km/h (0 Bft) W-SW 247 0 min -2,3 C 0,0 km/h (0 Bft)
06.03.2016 01:10 -0,2 C -0,4 C 90 % 998,2 hPa 0,0 mm 0,0 km/h (0 Bft) W-SW 247 0 min -1,6 C 0,0 km/h (0 Bft)
06.03.2016 01:15 -0,2 C -0,4 C 90 % 998,2 hPa 0,0 mm 0,0 km/h (0 Bft) W-SW 247 0 min -1,6 C 0,0 km/h (0 Bft)
06.03.2016 01:20 -0,2 C -0,3 C 86 % 998,2 hPa 0,0 mm 0,0 km/h (0 Bft) W-SW 247 0 min -2,3 C 0,0 km/h (0 Bft)
06.03.2016 01:25 -0,1 C -0,3 C 90 % 998,2 hPa 0,0 mm 0,0 km/h (0 Bft) W-SW 247 0 min -1,5 C 0,0 km/h (0 Bft)
06.03.2016 01:30 -0,1 C -0,3 C 90 % 998,5 hPa 0,0 mm 0,0 km/h (0 Bft) W-SW 247 0 min -1,5 C 0,0 km/h (0 Bft)
06.03.2016 01:35 -0,1 C -0,3 C 90 % 998,5 hPa 0,0 mm 0,0 km/h (0 Bft) W-SW 247 0 min -1,5 C 0,0 km/h (0 Bft)
06.03.2016 01:40 -0,1 C -0,3 C 90 % 998,5 hPa 0,0 mm 0,0 km/h (0 Bft) W-SW 247 0 min -1,5 C 0,0 km/h (0 Bft)
06.03.2016 01:45 0,0 C -0,2 C 90 % 998,5 hPa 0,0 mm 0,0 km/h (0 Bft) W-SW 247 0 min -1,4 C 0,0 km/h (0 Bft)
06.03.2016 01:50 0,0 C -0,2 C 90 % 998,6 hPa 0,0 mm 0,0 km/h (0 Bft) W-SW 247 0 min -1,4 C 0,0 km/h (0 Bft)
06.03.2016 01:55 0,0 C -0,2 C 90 % 998,6 hPa 0,0 mm 0,0 km/h (0 Bft) W-SW 247 0 min -1,4 C 0,0 km/h (0 Bft)
06.03.2016 02:00 0,0 C -0,1 C 87 % 998,6 hPa 0,0 mm 0,0 km/h (0 Bft) W-SW 247 0 min -1,9 C 0,0 km/h (0 Bft)
06.03.2016 02:05 0,0 C -0,1 C 87 % 998,6 hPa 0,0 mm 0,0 km/h (0 Bft) W-SW 247 0 min -1,9 C 0,0 km/h (0 Bft)
06.03.2016 02:10 0,0 C -0,1 C 87 % 998,7 hPa 0,0 mm 0,0 km/h (0 Bft) W-SW 247 0 min -1,9 C 0,0 km/h (0 Bft)
06.03.2016 02:15 0,0 C -0,1 C 87 % 998,7 hPa 0,0 mm 0,0 km/h (0 Bft) W-SW 247 0 min -1,9 C 0,0 km/h (0 Bft)
06.03.2016 02:20 0,0 C -0,1 C 87 % 998,7 hPa 0,0 mm 0,0 km/h (0 Bft) W-SW 247 0 min -1,9 C 0,0 km/h (0 Bft)
06.03.2016 02:25 0,0 C -0,1 C 87 % 998,7 hPa 0,0 mm 0,0 km/h (0 Bft) W-SW 247 0 min -1,9 C 0,0 km/h (0 Bft)
06.03.2016 02:30 0,0 C -0,2 C 91 % 998,7 hPa 0,0 mm 0,0 km/h (0 Bft) W-SW 247 0 min -1,3 C 0,0 km/h (0 Bft)
06.03.2016 02:35 0,0 C -0,2 C 91 % 998,7 hPa 0,0 mm 0,0 km/h (0 Bft) W-SW 247 0 min -1,3 C 0,0 km/h (0 Bft)
06.03.2016 02:40 0,0 C -0,2 C 91 % 998,7 hPa 0,0 mm 0,0 km/h (0 Bft) W-SW 247 0 min -1,3 C 0,0 km/h (0 Bft)
06.03.2016 02:45 -0,1 C -0,3 C 90 % 998,7 hPa 0,0 mm 0,0 km/h (0 Bft) W-SW 247 0 min -1,5 C 0,0 km/h (0 Bft)
06.03.2016 02:50 -0,1 C -0,3 C 90 % 998,9 hPa 0,0 mm 0,0 km/h (0 Bft) W-SW 247 0 min -1,5 C 0,0 km/h (0 Bft)
06.03.2016 02:55 -0,1 C -0,3 C 90 % 998,9 hPa 0,0 mm 0,0 km/h (0 Bft) W-SW 247 0 min -1,5 C 0,0 km/h (0 Bft)
06.03.2016 03:00 -0,2 C -0,4 C 90 % 998,9 hPa 0,0 mm 0,0 km/h (0 Bft) W-SW 247 0 min -1,6 C 0,0 km/h (0 Bft)
06.03.2016 03:05 -0,3 C -0,5 C 90 % 998,9 hPa 0,0 mm 0,0 km/h (0 Bft) W-SW 247 0 min -1,7 C 0,0 km/h (0 Bft)
06.03.2016 03:10 -0,2 C -0,4 C 90 % 998,8 hPa 0,0 mm 0,0 km/h (0 Bft) W-SW 247 0 min -1,6 C 0,0 km/h (0 Bft)
06.03.2016 03:15 -0,4 C -0,6 C 90 % 998,8 hPa 0,0 mm 0,0 km/h (0 Bft) W-SW 247 0 min -1,8 C 0,0 km/h (0 Bft)
06.03.2016 03:17 -0,4 C -0,6 C 90 % 998,8 hPa 0,0 mm 0,0 km/h (0 Bft) W-SW 247 0 min -1,8 C 0,0 km/h (0 Bft)
06.03.2016 03:20 -0,4 C -0,6 C 90 % 998,8 hPa 0,0 mm 0,0 km/h (0 Bft) W-SW 247 0 min -1,8 C 0,0 km/h (0 Bft)
06.03.2016 03:25 -0,5 C -0,7 C 90 % 998,8 hPa 0,0 mm 0,0 km/h (0 Bft) W-SW 247 0 min -1,9 C 0,0 km/h (0 Bft)
06.03.2016 03:30 -0,5 C -0,7 C 90 % 998,8 hPa 0,0 mm 0,0 km/h (0 Bft) W-SW 247 0 min -1,9 C 0,0 km/h (0 Bft)
06.03.2016 03:35 -0,5 C -0,7 C 90 % 998,8 hPa 0,0 mm 0,0 km/h (0 Bft) W-SW 247 0 min -1,9 C 0,0 km/h (0 Bft)
06.03.2016 03:40 -0,5 C -0,7 C 90 % 998,8 hPa 0,0 mm 0,0 km/h (0 Bft) W-SW 247 0 min -1,9 C 0,0 km/h (0 Bft)
06.03.2016 03:45 -0,6 C -0,8 C 90 % 998,8 hPa 0,0 mm 0,0 km/h (0 Bft) W-SW 247 0 min -2,0 C 0,0 km/h (0 Bft)
06.03.2016 03:50 -0,7 C -0,9 C 90 % 998,6 hPa 0,0 mm 0,0 km/h (0 Bft) W-SW 247 0 min -2,1 C 0,0 km/h (0 Bft)
06.03.2016 03:55 -0,8 C -1,0 C 90 % 998,6 hPa 0,0 mm 0,0 km/h (0 Bft) W-SW 247 0 min -2,2 C 0,0 km/h (0 Bft)
06.03.2016 04:00 -0,8 C -1,0 C 90 % 998,6 hPa 0,0 mm 0,0 km/h (0 Bft) W-SW 247 0 min -2,2 C 0,0 km/h (0 Bft)
06.03.2016 04:05 -0,9 C -1,1 C 90 % 998,6 hPa 0,0 mm 0,0 km/h (0 Bft) W-SW 247 0 min -2,3 C 0,0 km/h (0 Bft)
06.03.2016 04:10 -0,8 C -1,0 C 90 % 998,8 hPa 0,0 mm 0,0 km/h (0 Bft) W-SW 247 0 min -2,2 C 0,0 km/h (0 Bft)
06.03.2016 04:15 -0,9 C -1,1 C 90 % 998,8 hPa 0,0 mm 0,0 km/h (0 Bft) W-SW 247 0 min -2,3 C 0,0 km/h (0 Bft)
06.03.2016 04:20 -0,8 C -1,0 C 90 % 998,8 hPa 0,0 mm 0,0 km/h (0 Bft) W-SW 247 0 min -2,2 C 0,0 km/h (0 Bft)
06.03.2016 04:25 -0,9 C -1,1 C 90 % 998,8 hPa 0,0 mm 0,0 km/h (0 Bft) W-SW 247 0 min -2,3 C 0,0 km/h (0 Bft)
06.03.2016 04:30 -1,0 C -1,2 C 90 % 998,9 hPa 0,0 mm 0,0 km/h (0 Bft) W-SW 247 0 min -2,4 C 0,0 km/h (0 Bft)
06.03.2016 04:35 -1,2 C -1,4 C 90 % 998,9 hPa 0,0 mm 0,0 km/h (0 Bft) W-SW 247 0 min -2,6 C 0,0 km/h (0 Bft)
06.03.2016 04:40 -1,1 C -1,3 C 90 % 998,9 hPa 0,0 mm 0,0 km/h (0 Bft) W-SW 247 0 min -2,5 C 0,0 km/h (0 Bft)
06.03.2016 04:45 -1,0 C -1,2 C 90 % 998,9 hPa 0,0 mm 0,0 km/h (0 Bft) W-SW 247 0 min -2,4 C 0,0 km/h (0 Bft)
06.03.2016 04:50 -0,9 C -1,1 C 90 % 999,1 hPa 0,0 mm 0,0 km/h (0 Bft) W-SW 247 0 min -2,3 C 0,0 km/h (0 Bft)
06.03.2016 04:55 -0,9 C -1,1 C 90 % 999,1 hPa 0,0 mm 0,0 km/h (0 Bft) W-SW 247 0 min -2,3 C 0,0 km/h (0 Bft)
06.03.2016 05:00 -0,9 C -1,1 C 90 % 999,1 hPa 0,0 mm 0,0 km/h (0 Bft) W-SW 247 0 min -2,3 C 0,0 km/h (0 Bft)
06.03.2016 05:05 -0,8 C -1,0 C 90 % 999,1 hPa 0,0 mm 0,0 km/h (0 Bft) W-SW 247 0 min -2,2 C 0,0 km/h (0 Bft)
06.03.2016 05:10 -0,6 C -0,9 C 90 % 999,2 hPa 0,0 mm 0,0 km/h (0 Bft) W-SW 247 0 min -2,0 C 0,0 km/h (0 Bft)
06.03.2016 05:15 -0,7 C -0,9 C 90 % 999,2 hPa 0,0 mm 0,0 km/h (0 Bft) W-SW 247 0 min -2,1 C 0,0 km/h (0 Bft)
06.03.2016 05:20 -0,7 C -0,9 C 90 % 999,2 hPa 0,0 mm 0,0 km/h (0 Bft) W-SW 247 0 min -2,1 C 0,0 km/h (0 Bft)
06.03.2016 05:25 -0,8 C -1,0 C 90 % 999,2 hPa 0,0 mm 0,0 km/h (0 Bft) W-SW 247 0 min -2,2 C 0,0 km/h (0 Bft)
06.03.2016 05:30 -0,8 C -1,0 C 90 % 999,2 hPa 0,0 mm 0,0 km/h (0 Bft) W-SW 247 0 min -2,2 C 0,0 km/h (0 Bft)
06.03.2016 05:35 -0,8 C -1,0 C 90 % 999,2 hPa 0,0 mm 0,0 km/h (0 Bft) W-SW 247 0 min -2,2 C 0,0 km/h (0 Bft)
06.03.2016 05:40 -0,7 C -1,0 C 90 % 999,2 hPa 0,0 mm 0,0 km/h (0 Bft) W-SW 247 0 min -2,1 C 0,0 km/h (0 Bft)
06.03.2016 05:45 -0,8 C -1,0 C 90 % 999,2 hPa 0,0 mm 0,0 km/h (0 Bft) W-SW 247 0 min -2,2 C 0,0 km/h (0 Bft)
06.03.2016 05:50 -0,8 C -1,0 C 90 % 999,4 hPa 0,0 mm 0,0 km/h (0 Bft) W-SW 247 0 min -2,2 C 0,0 km/h (0 Bft)
06.03.2016 05:55 -0,9 C -1,1 C 86 % 999,4 hPa 0,0 mm 0,0 km/h (0 Bft) W-SW 247 0 min -2,9 C 0,0 km/h (0 Bft)
06.03.2016 06:00 -0,9 C -1,1 C 90 % 999,4 hPa 0,0 mm 0,0 km/h (0 Bft) W-SW 247 0 min -2,3 C 0,0 km/h (0 Bft)
06.03.2016 06:05 -0,9 C -1,2 C 90 % 999,4 hPa 0,0 mm 0,0 km/h (0 Bft) W-SW 247 0 min -2,3 C 0,0 km/h (0 Bft)
06.03.2016 06:10 -1,1 C -1,3 C 89 % 999,8 hPa 0,0 mm 0,0 km/h (0 Bft) W-SW 247 0 min -2,7 C 0,0 km/h (0 Bft)
06.03.2016 06:15 -1,0 C -1,3 C 89 % 999,8 hPa 0,0 mm 0,0 km/h (0 Bft) W-SW 247 0 min -2,6 C 0,0 km/h (0 Bft)
06.03.2016 06:18 -1,0 C -1,3 C 89 % 999,8 hPa 0,0 mm 0,0 km/h (0 Bft) W-SW 247 0 min -2,6 C 0,0 km/h (0 Bft)
06.03.2016 06:20 -1,1 C -1,4 C 89 % 999,8 hPa 0,0 mm 0,0 km/h (0 Bft) W-SW 247 0 min -2,7 C 0,0 km/h (0 Bft)
06.03.2016 06:25 -1,2 C -1,5 C 89 % 999,8 hPa 0,0 mm 0,0 km/h (0 Bft) W-SW 247 0 min -2,8 C 0,0 km/h (0 Bft)
06.03.2016 06:30 -1,2 C -1,5 C 89 % 999,8 hPa 0,0 mm 0,0 km/h (0 Bft) W-SW 247 0 min -2,8 C 0,0 km/h (0 Bft)
06.03.2016 06:35 -1,1 C -1,4 C 89 % 999,8 hPa 0,0 mm 0,0 km/h (0 Bft) W-SW 247 0 min -2,7 C 0,0 km/h (0 Bft)
06.03.2016 06:40 -1,2 C -1,5 C 89 % 999,8 hPa 0,0 mm 0,0 km/h (0 Bft) W-SW 247 0 min -2,8 C 0,0 km/h (0 Bft)
06.03.2016 06:45 -1,2 C -1,5 C 89 % 999,8 hPa 0,0 mm 0,0 km/h (0 Bft) W-SW 247 0 min -2,8 C 0,0 km/h (0 Bft)
06.03.2016 06:50 -1,1 C -1,4 C 89 % 1000,0 hPa 0,0 mm 0,0 km/h (0 Bft) W-SW 247 0 min -2,7 C 0,0 km/h (0 Bft)
06.03.2016 06:55 -1,0 C -1,3 C 89 % 1000,0 hPa 0,0 mm 0,0 km/h (0 Bft) W-SW 247 0 min -2,6 C 0,0 km/h (0 Bft)
06.03.2016 07:00 -1,0 C -1,3 C 89 % 1000,0 hPa 0,0 mm 0,0 km/h (0 Bft) W-SW 247 0 min -2,6 C 0,0 km/h (0 Bft)
06.03.2016 07:05 -1,1 C -1,4 C 89 % 1000,0 hPa 0,0 mm 0,0 km/h (0 Bft) W-SW 247 0 min -2,7 C 0,0 km/h (0 Bft)
06.03.2016 07:10 -1,1 C -1,4 C 88 % 1000,4 hPa 0,0 mm 0,0 km/h (0 Bft) W-SW 247 0 min -2,8 C 0,0 km/h (0 Bft)
06.03.2016 07:15 -1,1 C -1,4 C 88 % 1000,4 hPa 0,0 mm 0,0 km/h (0 Bft) W-SW 247 0 min -2,8 C 0,0 km/h (0 Bft)
06.03.2016 07:20 -1,2 C -1,4 C 86 % 1000,4 hPa 0,0 mm 0,0 km/h (0 Bft) W-SW 247 0 min -3,2 C 0,0 km/h (0 Bft)
06.03.2016 07:25 -1,2 C -1,3 C 85 % 1000,4 hPa 0,0 mm 0,0 km/h (0 Bft) W-SW 247 0 min -3,4 C 0,0 km/h (0 Bft)
06.03.2016 07:30 -1,2 C -1,2 C 85 % 1000,6 hPa 0,0 mm 0,0 km/h (0 Bft) W-SW 247 0 min -3,4 C 0,0 km/h (0 Bft)
06.03.2016 07:35 -1,2 C -1,2 C 85 % 1000,6 hPa 0,0 mm 0,0 km/h (0 Bft) W-SW 247 0 min -3,4 C 0,0 km/h (0 Bft)
06.03.2016 07:40 -1,2 C -1,1 C 85 % 1000,6 hPa 0,0 mm 0,0 km/h (0 Bft) W-SW 247 0 min -3,4 C 0,0 km/h (0 Bft)
06.03.2016 07:45 -1,2 C -1,1 C 85 % 1000,6 hPa 0,0 mm 0,0 km/h (0 Bft) W-SW 247 0 min -3,4 C 0,0 km/h (0 Bft)
06.03.2016 07:50 -1,2 C -1,1 C 85 % 1000,8 hPa 0,0 mm 0,0 km/h (0 Bft) W-SW 247 0 min -3,4 C 0,0 km/h (0 Bft)
06.03.2016 07:55 -1,2 C -1,0 C 85 % 1000,8 hPa 0,0 mm 0,0 km/h (0 Bft) W-SW 247 0 min -3,4 C 0,0 km/h (0 Bft)
06.03.2016 08:00 -1,2 C -0,8 C 85 % 1000,8 hPa 0,0 mm 0,0 km/h (0 Bft) W-SW 247 0 min -3,4 C 0,0 km/h (0 Bft)
06.03.2016 08:05 -1,1 C -0,6 C 85 % 1000,8 hPa 0,0 mm 0,0 km/h (0 Bft) W-SW 247 0 min -3,3 C 0,0 km/h (0 Bft)
06.03.2016 08:10 -1,0 C -0,5 C 85 % 1001,0 hPa 0,0 mm 0,0 km/h (0 Bft) W-SW 247 0 min -3,2 C 0,0 km/h (0 Bft)
06.03.2016 08:15 -1,0 C -0,3 C 85 % 1001,0 hPa 0,0 mm 0,0 km/h (0 Bft) W-SW 247 0 min -3,2 C 0,0 km/h (0 Bft)
06.03.2016 08:20 -1,0 C -0,3 C 85 % 1001,0 hPa 0,0 mm 0,0 km/h (0 Bft) W-SW 247 0 min -3,2 C 0,0 km/h (0 Bft)
06.03.2016 08:25 -1,0 C -0,3 C 85 % 1001,0 hPa 0,0 mm 0,0 km/h (0 Bft) W-SW 247 0 min -3,2 C 0,0 km/h (0 Bft)
06.03.2016 08:30 -1,0 C -0,3 C 85 % 1001,2 hPa 0,0 mm 0,0 km/h (0 Bft) W-SW 247 0 min -3,2 C 0,0 km/h (0 Bft)
06.03.2016 08:35 -1,0 C -0,2 C 85 % 1001,2 hPa 0,0 mm 0,0 km/h (0 Bft) W-SW 247 0 min -3,2 C 0,0 km/h (0 Bft)
06.03.2016 08:40 -1,0 C -0,1 C 84 % 1001,2 hPa 0,0 mm 0,0 km/h (0 Bft) W-SW 247 0 min -3,4 C 0,0 km/h (0 Bft)
06.03.2016 08:45 -0,9 C 0,1 C 84 % 1001,2 hPa 0,0 mm 0,0 km/h (0 Bft) W-SW 247 0 min -3,3 C 0,0 km/h (0 Bft)
06.03.2016 08:50 -0,9 C 0,2 C 84 % 1001,6 hPa 0,0 mm 0,0 km/h (0 Bft) W-SW 247 0 min -3,3 C 0,0 km/h (0 Bft)
06.03.2016 08:55 -0,7 C 0,3 C 84 % 1001,6 hPa 0,0 mm 0,0 km/h (0 Bft) W-SW 247 0 min -3,1 C 0,0 km/h (0 Bft)
06.03.2016 09:00 -0,6 C 0,5 C 84 % 1001,6 hPa 0,0 mm 0,0 km/h (0 Bft) W-SW 247 0 min -3,0 C 0,0 km/h (0 Bft)
06.03.2016 09:05 -0,6 C 0,6 C 83 % 1001,6 hPa 0,0 mm 0,0 km/h (0 Bft) W-SW 247 0 min -3,1 C 0,0 km/h (0 Bft)
06.03.2016 09:10 -0,6 C 0,7 C 83 % 1001,6 hPa 0,0 mm 0,0 km/h (0 Bft) W-SW 247 0 min -3,1 C 0,0 km/h (0 Bft)
06.03.2016 09:15 -0,6 C 0,7 C 83 % 1001,6 hPa 0,0 mm 0,0 km/h (0 Bft) W-SW 247 0 min -3,1 C 0,0 km/h (0 Bft)
06.03.2016 09:19 -0,6 C 0,7 C 83 % 1001,6 hPa 0,0 mm 0,0 km/h (0 Bft) W-SW 247 0 min -3,1 C 0,0 km/h (0 Bft)
06.03.2016 09:25 -0,5 C 0,7 C 83 % 1001,6 hPa 0,0 mm 0,0 km/h (0 Bft) W-SW 247 0 min -3,0 C 0,0 km/h (0 Bft)
06.03.2016 09:30 -0,5 C 0,8 C 83 % 1002,0 hPa 0,0 mm 0,0 km/h (0 Bft) W-SW 247 0 min -3,0 C 0,0 km/h (0 Bft)
06.03.2016 09:35 -0,6 C 0,7 C 83 % 1002,0 hPa 0,0 mm 0,0 km/h (0 Bft) W-SW 247 0 min -3,1 C 0,0 km/h (0 Bft)
06.03.2016 09:40 -0,6 C 0,9 C 82 % 1002,0 hPa 0,0 mm 0,0 km/h (0 Bft) W-SW 247 0 min -3,3 C 0,0 km/h (0 Bft)
06.03.2016 09:45 -0,6 C 0,9 C 82 % 1002,0 hPa 0,0 mm 0,0 km/h (0 Bft) W-SW 247 0 min -3,3 C 0,0 km/h (0 Bft)
06.03.2016 09:50 -0,5 C 1,2 C 82 % 1002,2 hPa 0,0 mm 0,0 km/h (0 Bft) W-SW 247 0 min -3,2 C 0,0 km/h (0 Bft)
06.03.2016 09:55 -0,5 C 1,3 C 82 % 1002,2 hPa 0,0 mm 0,0 km/h (0 Bft) W-SW 247 0 min -3,2 C 0,0 km/h (0 Bft)
06.03.2016 10:00 -0,5 C 1,4 C 82 % 1002,2 hPa 0,0 mm 0,0 km/h (0 Bft) W-SW 247 0 min -3,2 C 0,0 km/h (0 Bft)
06.03.2016 10:05 -0,5 C 1,4 C 81 % 1002,2 hPa 0,0 mm 0,0 km/h (0 Bft) W-SW 247 0 min -3,3 C 0,0 km/h (0 Bft)
06.03.2016 10:10 -0,3 C 1,8 C 81 % 1002,6 hPa 0,0 mm 0,0 km/h (0 Bft) W-SW 247 0 min -3,2 C 0,0 km/h (0 Bft)
06.03.2016 10:15 0,0 C 2,9 C 81 % 1002,6 hPa 0,0 mm 0,0 km/h (0 Bft) W-SW 247 0 min -2,9 C 0,0 km/h (0 Bft)
06.03.2016 10:20 0,2 C 2,9 C 81 % 1002,6 hPa 0,0 mm 0,0 km/h (0 Bft) W-SW 247 0 min -2,7 C 0,0 km/h (0 Bft)
06.03.2016 10:25 0,3 C 2,7 C 80 % 1002,6 hPa 0,0 mm 1,8 km/h (1 Bft) W-SW 247 0 min -2,7 C 12,8 km/h (3 Bft)
06.03.2016 10:30 0,4 C 3,2 C 79 % 1003,1 hPa 0,7 mm 3,3 km/h (1 Bft) W-SW 247 0 min -2,8 C 6,0 km/h (2 Bft)
06.03.2016 10:31 0,4 C 3,2 C 79 % 1003,1 hPa 0,0 mm 3,3 km/h (1 Bft) W-SW 247 0 min -2,8 C 6,0 km/h (2 Bft)
06.03.2016 10:32 0,4 C 3,2 C 79 % 1003,1 hPa 0,0 mm 3,3 km/h (1 Bft) W-SW 247 0 min -2,8 C 6,0 km/h (2 Bft)
06.03.2016 10:33 0,4 C 3,2 C 79 % 1003,1 hPa 0,0 mm 3,3 km/h (1 Bft) W-SW 247 0 min -2,8 C 6,0 km/h (2 Bft)
06.03.2016 10:34 0,4 C 3,2 C 79 % 1003,1 hPa 0,0 mm 3,3 km/h (1 Bft) W-SW 247 0 min -2,8 C 6,0 km/h (2 Bft)
06.03.2016 10:36 0,5 C 3,3 C 79 % 1003,1 hPa 0,0 mm 4,5 km/h (1 Bft) W-SW 247 0 min -2,7 C 6,0 km/h (2 Bft)
06.03.2016 10:47 0,9 C 4,7 C 79 % 1003,1 hPa 0,0 mm 4,5 km/h (1 Bft) W-SW 247 0 min -2,3 C 8,0 km/h (2 Bft)
06.03.2016 10:48 0,9 C 4,7 C 79 % 1003,1 hPa 0,0 mm 4,5 km/h (1 Bft) W-SW 247 0 min -2,3 C 8,0 km/h (2 Bft)
06.03.2016 10:49 0,9 C 4,7 C 79 % 1003,1 hPa 0,0 mm 4,5 km/h (1 Bft) W-SW 247 0 min -2,3 C 8,0 km/h (2 Bft)
06.03.2016 10:50 0,7 C 4,1 C 79 % 1003,4 hPa 0,0 mm 5,4 km/h (1 Bft) W-NW 292 0 min -2,5 C 9,8 km/h (2 Bft)
06.03.2016 10:51 0,7 C 4,1 C 79 % 1003,4 hPa 0,0 mm 5,4 km/h (1 Bft) W-NW 292 0 min -2,5 C 9,8 km/h (2 Bft)
06.03.2016 10:53 0,7 C 4,1 C 79 % 1003,4 hPa 0,0 mm 5,4 km/h (1 Bft) W-NW 292 0 min -2,5 C 9,8 km/h (2 Bft)
06.03.2016 11:04 1,3 C 4,1 C 78 % 1003,4 hPa 0,0 mm 10,1 km/h (2 Bft) SO 135 0 min -2,1 C 28,0 km/h (4 Bft)
06.03.2016 11:05 1,6 C 5,0 C 77 % 1003,4 hPa 0,0 mm 9,2 km/h (2 Bft) NW 315 0 min -2,0 C 11,9 km/h (2 Bft)
06.03.2016 11:06 1,6 C 5,0 C 77 % 1003,4 hPa 0,0 mm 9,2 km/h (2 Bft) NW 315 0 min -2,0 C 11,9 km/h (2 Bft)
06.03.2016 11:07 1,6 C 5,0 C 77 % 1003,4 hPa 0,0 mm 9,2 km/h (2 Bft) NW 315 0 min -2,0 C 11,9 km/h (2 Bft)
06.03.2016 11:08 1,6 C 5,0 C 77 % 1003,4 hPa 0,0 mm 9,2 km/h (2 Bft) NW 315 0 min -2,0 C 11,9 km/h (2 Bft)
06.03.2016 11:09 1,4 C 5,3 C 76 % 1003,9 hPa 0,0 mm 8,9 km/h (2 Bft) W 270 0 min -2,4 C 7,7 km/h (2 Bft)
06.03.2016 11:14 1,4 C 4,6 C 76 % 1003,9 hPa 0,0 mm 10,1 km/h (2 Bft) O-SO 112 0 min -2,4 C 11,9 km/h (2 Bft)
06.03.2016 11:19 1,5 C 5,1 C 76 % 1003,9 hPa 0,7 mm 9,8 km/h (2 Bft) W-SW 247 0 min -2,3 C 10,7 km/h (2 Bft)
06.03.2016 11:24 1,7 C 6,1 C 75 % 1003,9 hPa 0,0 mm 9,5 km/h (2 Bft) W 270 0 min -2,2 C 5,4 km/h (1 Bft)
06.03.2016 11:29 1,7 C 6,7 C 75 % 1004,5 hPa 0,0 mm 8,9 km/h (2 Bft) W-SW 247 0 min -2,2 C 10,1 km/h (2 Bft)
06.03.2016 11:34 2,1 C 6,9 C 75 % 1004,5 hPa 0,0 mm 8,0 km/h (2 Bft) W 270 0 min -1,9 C 8,3 km/h (2 Bft)
06.03.2016 11:39 2,2 C 6,7 C 74 % 1004,5 hPa 0,0 mm 9,2 km/h (2 Bft) W-NW 292 0 min -1,9 C 18,8 km/h (3 Bft)
06.03.2016 11:44 2,3 C 6,6 C 74 % 1004,5 hPa 0,7 mm 9,8 km/h (2 Bft) W-NW 292 0 min -1,8 C 6,6 km/h (2 Bft)
06.03.2016 11:49 2,7 C 7,0 C 73 % 1005,1 hPa 0,0 mm 8,9 km/h (2 Bft) W 270 0 min -1,6 C 12,5 km/h (3 Bft)
06.03.2016 11:54 2,0 C 5,7 C 72 % 1005,1 hPa 0,0 mm 8,6 km/h (2 Bft) W-SW 247 0 min -2,5 C 13,1 km/h (3 Bft)
06.03.2016 11:59 1,9 C 5,2 C 72 % 1005,1 hPa 0,0 mm 10,7 km/h (2 Bft) W-NW 292 0 min -2,6 C 23,2 km/h (4 Bft)
06.03.2016 12:04 2,2 C 5,2 C 71 % 1005,1 hPa 0,0 mm 11,6 km/h (2 Bft) W-NW 292 0 min -2,5 C 17,0 km/h (3 Bft)
06.03.2016 12:09 2,5 C 6,0 C 72 % 1005,1 hPa 0,7 mm 11,3 km/h (2 Bft) NW 315 0 min -2,0 C 21,8 km/h (4 Bft)
06.03.2016 12:14 2,2 C 4,9 C 71 % 1005,1 hPa 0,0 mm 12,2 km/h (2 Bft) NW 315 0 min -2,5 C 20,6 km/h (4 Bft)
06.03.2016 12:19 2,2 C 4,6 C 71 % 1005,1 hPa 0,7 mm 12,8 km/h (3 Bft) N-NW 337 0 min -2,5 C 17,9 km/h (3 Bft)
06.03.2016 12:20 2,2 C 4,6 C 71 % 1005,1 hPa 0,0 mm 12,8 km/h (3 Bft) N-NW 337 0 min -2,5 C 17,9 km/h (3 Bft)
06.03.2016 12:25 2,3 C 5,4 C 71 % 1005,1 hPa 0,0 mm 9,2 km/h (2 Bft) W 270 0 min -2,4 C 3,9 km/h (1 Bft)
06.03.2016 12:30 1,9 C 5,2 C 70 % 1004,8 hPa 0,0 mm 7,7 km/h (2 Bft) W 270 0 min -3,0 C 6,3 km/h (2 Bft)
06.03.2016 12:35 2,0 C 5,7 C 71 % 1004,8 hPa 0,7 mm 6,9 km/h (2 Bft) W-NW 292 0 min -2,7 C 6,3 km/h (2 Bft)
06.03.2016 12:40 1,9 C 5,9 C 71 % 1004,8 hPa 0,0 mm 5,4 km/h (1 Bft) W 270 0 min -2,8 C 11,0 km/h (2 Bft)
06.03.2016 12:45 2,2 C 6,2 C 70 % 1004,8 hPa 0,0 mm 5,4 km/h (1 Bft) W 270 0 min -2,7 C 4,2 km/h (1 Bft)
06.03.2016 12:50 2,2 C 6,6 C 69 % 1004,2 hPa 0,0 mm 6,3 km/h (2 Bft) W-NW 292 0 min -2,9 C 7,5 km/h (2 Bft)
06.03.2016 12:55 2,2 C 6,8 C 69 % 1004,2 hPa 0,0 mm 6,3 km/h (2 Bft) SW 225 0 min -2,9 C 8,6 km/h (2 Bft)
06.03.2016 13:00 1,9 C 6,6 C 69 % 1004,2 hPa 0,0 mm 5,7 km/h (1 Bft) W-SW 247 0 min -3,2 C 3,3 km/h (1 Bft)
06.03.2016 13:05 1,9 C 6,7 C 69 % 1004,2 hPa 0,0 mm 4,2 km/h (1 Bft) W-SW 247 0 min -3,2 C 6,9 km/h (2 Bft)
06.03.2016 13:10 2,0 C 7,0 C 69 % 1003,9 hPa 0,0 mm 3,6 km/h (1 Bft) W-NW 292 0 min -3,1 C 13,7 km/h (3 Bft)
06.03.2016 13:15 1,9 C 6,3 C 69 % 1003,9 hPa 0,0 mm 5,7 km/h (1 Bft) SW 225 0 min -3,2 C 8,0 km/h (2 Bft)
06.03.2016 13:20 2,0 C 6,4 C 69 % 1003,9 hPa 0,0 mm 5,4 km/h (1 Bft) W-SW 247 0 min -3,1 C 3,9 km/h (1 Bft)
06.03.2016 13:25 2,2 C 6,9 C 68 % 1003,9 hPa 0,0 mm 5,1 km/h (1 Bft) SW 225 0 min -3,1 C 8,0 km/h (2 Bft)
06.03.2016 13:30 2,7 C 7,9 C 68 % 1003,8 hPa 0,0 mm 5,7 km/h (1 Bft) SW 225 0 min -2,6 C 8,3 km/h (2 Bft)
06.03.2016 13:35 3,5 C 9,9 C 66 % 1003,8 hPa 0,0 mm 5,4 km/h (1 Bft) W 270 0 min -2,2 C 6,3 km/h (2 Bft)
06.03.2016 13:40 3,7 C 11,0 C 65 % 1003,8 hPa 0,0 mm 5,7 km/h (1 Bft) W-SW 247 0 min -2,3 C 9,5 km/h (2 Bft)
06.03.2016 13:45 3,1 C 9,8 C 63 % 1003,8 hPa 0,0 mm 9,5 km/h (2 Bft) W-SW 247 5 min -3,2 C 16,4 km/h (3 Bft)
06.03.2016 13:50 3,3 C 7,5 C 63 % 1004,1 hPa 0,0 mm 11,6 km/h (2 Bft) W 270 0 min -3,1 C 11,9 km/h (2 Bft)
06.03.2016 13:55 3,9 C 8,3 C 63 % 1004,1 hPa 0,0 mm 11,0 km/h (2 Bft) NW 315 0 min -2,5 C 10,7 km/h (2 Bft)
06.03.2016 14:00 4,4 C 9,3 C 62 % 1004,1 hPa 0,0 mm 10,1 km/h (2 Bft) W 270 0 min -2,2 C 13,7 km/h (3 Bft)
06.03.2016 14:05 3,3 C 8,7 C 60 % 1004,1 hPa 0,0 mm 8,6 km/h (2 Bft) W-SW 247 5 min -3,7 C 8,3 km/h (2 Bft)
06.03.2016 14:10 2,8 C 7,4 C 62 % 1004,3 hPa 0,0 mm 8,0 km/h (2 Bft) W-SW 247 0 min -3,7 C 11,9 km/h (2 Bft)
06.03.2016 14:15 3,8 C 8,4 C 62 % 1004,3 hPa 0,0 mm 8,0 km/h (2 Bft) SW 225 0 min -2,8 C 6,6 km/h (2 Bft)
06.03.2016 14:20 4,5 C 10,2 C 61 % 1004,3 hPa 0,0 mm 8,3 km/h (2 Bft) NW 315 0 min -2,4 C 14,9 km/h (3 Bft)
06.03.2016 14:25 4,6 C 10,9 C 60 % 1004,3 hPa 0,0 mm 8,6 km/h (2 Bft) W 270 5 min -2,5 C 9,5 km/h (2 Bft)
06.03.2016 14:30 4,8 C 10,6 C 60 % 1004,1 hPa 0,0 mm 9,2 km/h (2 Bft) W-NW 292 5 min -2,3 C 10,1 km/h (2 Bft)
06.03.2016 14:35 4,1 C 8,9 C 59 % 1004,1 hPa 0,0 mm 9,2 km/h (2 Bft) W-NW 292 5 min -3,2 C 11,9 km/h (2 Bft)
06.03.2016 14:40 3,6 C 6,9 C 59 % 1004,1 hPa 0,0 mm 9,2 km/h (2 Bft) W-NW 292 0 min -3,6 C 10,7 km/h (2 Bft)
06.03.2016 14:45 3,6 C 6,4 C 59 % 1004,1 hPa 0,0 mm 9,5 km/h (2 Bft) W 270 0 min -3,6 C 11,6 km/h (2 Bft)
06.03.2016 14:50 3,5 C 6,0 C 59 % 1004,1 hPa 0,0 mm 9,8 km/h (2 Bft) NW 315 0 min -3,7 C 18,5 km/h (3 Bft)
06.03.2016 14:55 3,1 C 5,4 C 59 % 1004,1 hPa 0,0 mm 10,1 km/h (2 Bft) NW 315 0 min -4,1 C 8,3 km/h (2 Bft)
06.03.2016 15:00 3,5 C 6,1 C 59 % 1004,1 hPa 0,0 mm 10,4 km/h (2 Bft) W-NW 292 0 min -3,7 C 14,3 km/h (3 Bft)
06.03.2016 15:06 3,7 C 7,2 C 59 % 1004,1 hPa 0,0 mm 10,4 km/h (2 Bft) NW 315 0 min -3,6 C 22,7 km/h (4 Bft)
06.03.2016 15:07 3,7 C 7,2 C 59 % 1004,1 hPa 0,0 mm 10,4 km/h (2 Bft) NW 315 0 min -3,6 C 22,7 km/h (4 Bft)
06.03.2016 15:08 3,7 C 7,2 C 59 % 1004,1 hPa 0,0 mm 10,4 km/h (2 Bft) NW 315 0 min -3,6 C 22,7 km/h (4 Bft)
06.03.2016 15:09 3,7 C 7,2 C 59 % 1004,1 hPa 0,0 mm 10,4 km/h (2 Bft) NW 315 0 min -3,6 C 22,7 km/h (4 Bft)
06.03.2016 15:10 3,8 C 7,8 C 59 % 1003,9 hPa 0,0 mm 10,7 km/h (2 Bft) W 270 0 min -3,5 C 12,8 km/h (3 Bft)
06.03.2016 15:12 3,8 C 7,8 C 59 % 1003,9 hPa 0,0 mm 10,7 km/h (2 Bft) W 270 0 min -3,5 C 12,8 km/h (3 Bft)
06.03.2016 15:14 3,6 C 9,0 C 59 % 1003,9 hPa 0,0 mm 8,9 km/h (2 Bft) W-NW 292 2 min -3,6 C 8,0 km/h (2 Bft)
06.03.2016 15:19 3,0 C 8,3 C 59 % 1003,9 hPa 0,0 mm 7,5 km/h (2 Bft) W-SW 247 5 min -4,2 C 4,2 km/h (1 Bft)
06.03.2016 15:21 3,0 C 8,3 C 59 % 1003,9 hPa 0,0 mm 7,5 km/h (2 Bft) W-SW 247 2 min -4,2 C 4,2 km/h (1 Bft)
06.03.2016 15:25 3,1 C 7,3 C 59 % 1003,9 hPa 0,0 mm 6,0 km/h (2 Bft) W 270 0 min -4,1 C 3,9 km/h (1 Bft)
06.03.2016 15:30 3,3 C 8,2 C 59 % 1003,7 hPa 0,0 mm 5,1 km/h (1 Bft) W 270 0 min -3,9 C 3,3 km/h (1 Bft)
06.03.2016 15:35 3,1 C 8,6 C 59 % 1003,7 hPa 0,0 mm 6,6 km/h (2 Bft) W-SW 247 5 min -4,1 C 7,7 km/h (2 Bft)
06.03.2016 15:40 2,7 C 8,7 C 59 % 1003,7 hPa 0,0 mm 7,5 km/h (2 Bft) SW 225 5 min -4,5 C 9,8 km/h (2 Bft)
06.03.2016 15:45 2,2 C 8,3 C 59 % 1003,7 hPa 0,0 mm 7,7 km/h (2 Bft) W-SW 247 5 min -5,0 C 8,9 km/h (2 Bft)
06.03.2016 15:50 1,7 C 6,4 C 60 % 1003,4 hPa 0,0 mm 7,5 km/h (2 Bft) W-SW 247 5 min -5,2 C 12,2 km/h (2 Bft)
06.03.2016 15:55 1,4 C 5,4 C 61 % 1003,4 hPa 0,0 mm 7,2 km/h (2 Bft) W-SW 247 0 min -5,3 C 5,4 km/h (1 Bft)
06.03.2016 16:00 1,4 C 5,4 C 62 % 1003,4 hPa 0,0 mm 7,7 km/h (2 Bft) W-SW 247 0 min -5,1 C 10,4 km/h (2 Bft)
06.03.2016 16:05 1,3 C 4,4 C 62 % 1003,4 hPa 0,0 mm 8,3 km/h (2 Bft) W 270 0 min -5,2 C 6,0 km/h (2 Bft)
06.03.2016 16:10 1,3 C 4,2 C 62 % 1003,1 hPa 0,0 mm 8,6 km/h (2 Bft) W-SW 247 0 min -5,2 C 13,1 km/h (3 Bft)
06.03.2016 16:11 1,3 C 4,2 C 62 % 1003,1 hPa 0,0 mm 8,6 km/h (2 Bft) W-SW 247 0 min -5,2 C 13,1 km/h (3 Bft)
06.03.2016 16:12 1,3 C 4,2 C 62 % 1003,1 hPa 0,0 mm 8,6 km/h (2 Bft) W-SW 247 0 min -5,2 C 13,1 km/h (3 Bft)
06.03.2016 16:13 1,3 C 4,2 C 62 % 1003,1 hPa 0,0 mm 8,6 km/h (2 Bft) W-SW 247 0 min -5,2 C 13,1 km/h (3 Bft)
06.03.2016 16:14 1,3 C 4,2 C 62 % 1003,1 hPa 0,0 mm 8,6 km/h (2 Bft) W-SW 247 0 min -5,2 C 13,1 km/h (3 Bft)
06.03.2016 16:16 1,1 C 4,2 C 63 % 1003,1 hPa 0,0 mm 9,5 km/h (2 Bft) W 270 0 min -5,1 C 13,7 km/h (3 Bft)
06.03.2016 16:27 1,1 C 4,7 C 63 % 1003,1 hPa 0,0 mm 8,9 km/h (2 Bft) W 270 5 min -5,1 C 11,0 km/h (2 Bft)
06.03.2016 16:28 1,1 C 4,7 C 63 % 1003,1 hPa 0,0 mm 8,9 km/h (2 Bft) W 270 1 min -5,1 C 11,0 km/h (2 Bft)
06.03.2016 16:29 1,1 C 4,7 C 63 % 1003,1 hPa 0,0 mm 8,9 km/h (2 Bft) W 270 1 min -5,1 C 11,0 km/h (2 Bft)
06.03.2016 16:30 1,1 C 4,3 C 64 % 1002,9 hPa 0,0 mm 8,9 km/h (2 Bft) W 270 0 min -4,9 C 9,5 km/h (2 Bft)
06.03.2016 16:31 1,1 C 4,3 C 64 % 1002,9 hPa 0,0 mm 8,9 km/h (2 Bft) W 270 0 min -4,9 C 9,5 km/h (2 Bft)
06.03.2016 16:33 1,1 C 4,3 C 64 % 1002,9 hPa 0,0 mm 8,9 km/h (2 Bft) W 270 0 min -4,9 C 9,5 km/h (2 Bft)
06.03.2016 16:44 1,3 C 2,9 C 64 % 1002,9 hPa 0,0 mm 7,2 km/h (2 Bft) W-SW 247 0 min -4,7 C 8,9 km/h (2 Bft)
06.03.2016 16:45 1,1 C 2,8 C 64 % 1002,9 hPa 0,0 mm 7,5 km/h (2 Bft) W 270 0 min -4,9 C 8,9 km/h (2 Bft)
06.03.2016 16:46 1,1 C 2,8 C 64 % 1002,9 hPa 0,0 mm 7,5 km/h (2 Bft) W 270 0 min -4,9 C 8,9 km/h (2 Bft)
06.03.2016 16:47 1,1 C 2,8 C 64 % 1002,9 hPa 0,0 mm 7,5 km/h (2 Bft) W 270 0 min -4,9 C 8,9 km/h (2 Bft)
06.03.2016 16:48 1,1 C 2,8 C 64 % 1002,9 hPa 0,0 mm 7,5 km/h (2 Bft) W 270 0 min -4,9 C 8,9 km/h (2 Bft)
06.03.2016 16:49 1,0 C 2,7 C 64 % 1002,9 hPa 0,0 mm 6,9 km/h (2 Bft) W 270 0 min -5,0 C 5,4 km/h (1 Bft)
06.03.2016 16:54 0,9 C 2,9 C 65 % 1002,9 hPa 0,0 mm 5,7 km/h (1 Bft) NW 315 0 min -4,9 C 5,4 km/h (1 Bft)
06.03.2016 16:59 0,8 C 2,8 C 65 % 1002,9 hPa 0,0 mm 4,5 km/h (1 Bft) W 270 0 min -5,0 C 6,9 km/h (2 Bft)
06.03.2016 17:04 0,8 C 2,7 C 65 % 1002,9 hPa 0,0 mm 5,1 km/h (1 Bft) W-SW 247 0 min -5,0 C 5,7 km/h (1 Bft)
06.03.2016 17:09 0,7 C 2,3 C 65 % 1002,6 hPa 0,0 mm 5,4 km/h (1 Bft) W 270 0 min -5,1 C 6,3 km/h (2 Bft)
06.03.2016 17:14 0,5 C 1,5 C 65 % 1002,6 hPa 0,0 mm 4,5 km/h (1 Bft) W 270 0 min -5,3 C 6,9 km/h (2 Bft)
06.03.2016 17:19 0,3 C 1,0 C 65 % 1002,6 hPa 0,0 mm 4,2 km/h (1 Bft) W-SW 247 0 min -5,5 C 4,5 km/h (1 Bft)
06.03.2016 17:24 0,2 C 0,2 C 66 % 1002,6 hPa 0,0 mm 3,6 km/h (1 Bft) W-SW 247 0 min -5,4 C 4,8 km/h (1 Bft)
06.03.2016 17:29 0,2 C 0,0 C 66 % 1002,6 hPa 0,0 mm 2,4 km/h (1 Bft) S-SW 202 0 min -5,4 C 0,0 km/h (0 Bft)
06.03.2016 17:34 -0,2 C -0,4 C 66 % 1002,6 hPa 0,0 mm 1,5 km/h (1 Bft) W-SW 247 0 min -5,8 C 0,0 km/h (0 Bft)
06.03.2016 17:39 -0,5 C -0,7 C 66 % 1002,6 hPa 0,0 mm 1,5 km/h (1 Bft) W 270 0 min -6,1 C 4,8 km/h (1 Bft)
06.03.2016 17:44 -0,7 C -1,0 C 67 % 1002,6 hPa 0,0 mm 2,1 km/h (1 Bft) W 270 0 min -6,0 C 3,3 km/h (1 Bft)
06.03.2016 17:49 -0,6 C -1,0 C 67 % 1002,6 hPa 0,0 mm 3,0 km/h (1 Bft) S-SW 202 0 min -6,0 C 5,4 km/h (1 Bft)
06.03.2016 17:54 -0,6 C -1,1 C 68 % 1002,6 hPa 0,0 mm 4,5 km/h (1 Bft) SW 225 0 min -5,8 C 7,2 km/h (2 Bft)
06.03.2016 17:59 -0,6 C -1,2 C 68 % 1002,6 hPa 0,0 mm 4,8 km/h (1 Bft) W-SW 247 0 min -5,8 C 6,0 km/h (2 Bft)
06.03.2016 18:04 -0,7 C -1,3 C 68 % 1002,6 hPa 0,0 mm 5,1 km/h (1 Bft) SW 225 0 min -5,9 C 7,7 km/h (2 Bft)
06.03.2016 18:09 -0,7 C -1,4 C 68 % 1002,7 hPa 0,0 mm 5,7 km/h (1 Bft) W-SW 247 0 min -5,9 C 6,9 km/h (2 Bft)
06.03.2016 18:14 -0,8 C -1,5 C 68 % 1002,7 hPa 0,0 mm 6,0 km/h (2 Bft) S 180 0 min -5,9 C 10,7 km/h (2 Bft)
06.03.2016 18:19 -0,7 C -1,5 C 67 % 1002,7 hPa 0,0 mm 6,6 km/h (2 Bft) SW 225 0 min -6,0 C 10,7 km/h (2 Bft)
06.03.2016 18:22 -0,7 C -1,5 C 67 % 1002,7 hPa 0,0 mm 6,6 km/h (2 Bft) SW 225 0 min -6,0 C 10,7 km/h (2 Bft)
06.03.2016 18:25 -0,8 C -1,7 C 67 % 1002,7 hPa 0,0 mm 7,5 km/h (2 Bft) S 180 0 min -6,1 C 10,7 km/h (2 Bft)
06.03.2016 18:30 -1,3 C -1,7 C 67 % 1002,8 hPa 0,0 mm 4,8 km/h (1 Bft) NO 45 0 min -6,6 C 0,0 km/h (0 Bft)
06.03.2016 18:35 -1,7 C -2,1 C 69 % 1002,8 hPa 0,0 mm 0,6 km/h (0 Bft) S 180 0 min -6,6 C 0,0 km/h (0 Bft)
06.03.2016 18:40 -1,9 C -2,3 C 69 % 1002,8 hPa 0,0 mm 1,5 km/h (1 Bft) SW 225 0 min -6,8 C 7,5 km/h (2 Bft)
06.03.2016 18:45 -1,7 C -2,4 C 71 % 1002,8 hPa 0,0 mm 5,4 km/h (1 Bft) W-SW 247 0 min -6,2 C 10,1 km/h (2 Bft)
06.03.2016 18:50 -1,8 C -2,6 C 71 % 1003,0 hPa 0,0 mm 7,2 km/h (2 Bft) W-SW 247 0 min -6,3 C 9,5 km/h (2 Bft)
06.03.2016 18:55 -2,3 C -3,1 C 72 % 1003,0 hPa 0,0 mm 7,5 km/h (2 Bft) S-SW 202 0 min -6,6 C 3,9 km/h (1 Bft)
06.03.2016 19:00 -2,2 C -2,8 C 73 % 1003,0 hPa 0,0 mm 5,4 km/h (1 Bft) S-SO 157 0 min -6,4 C 5,7 km/h (1 Bft)
06.03.2016 19:05 -1,8 C -2,4 C 71 % 1003,0 hPa 0,0 mm 5,7 km/h (1 Bft) S-SW 202 0 min -6,3 C 4,8 km/h (1 Bft)
06.03.2016 19:10 -1,8 C -2,6 C 74 % 1002,9 hPa 0,0 mm 7,2 km/h (2 Bft) SW 225 0 min -5,8 C 12,2 km/h (2 Bft)
06.03.2016 19:15 -1,9 C -2,6 C 73 % 1002,9 hPa 0,0 mm 6,3 km/h (2 Bft) SO 135 0 min -6,1 C 7,2 km/h (2 Bft)
06.03.2016 19:20 -1,9 C -2,6 C 74 % 1002,9 hPa 0,0 mm 6,3 km/h (2 Bft) W-SW 247 0 min -5,9 C 3,3 km/h (1 Bft)
06.03.2016 19:25 -2,2 C -2,6 C 73 % 1002,9 hPa 0,0 mm 4,5 km/h (1 Bft) S-SW 202 0 min -6,4 C 8,0 km/h (2 Bft)
06.03.2016 19:30 -2,2 C -2,6 C 74 % 1003,3 hPa 0,0 mm 3,3 km/h (1 Bft) SW 225 0 min -6,2 C 5,4 km/h (1 Bft)
06.03.2016 19:35 -2,0 C -2,7 C 74 % 1003,3 hPa 0,0 mm 5,4 km/h (1 Bft) SW 225 0 min -6,0 C 11,9 km/h (2 Bft)
06.03.2016 19:40 -2,0 C -2,8 C 74 % 1003,3 hPa 0,0 mm 6,3 km/h (2 Bft) S 180 0 min -6,0 C 9,8 km/h (2 Bft)
06.03.2016 19:45 -2,0 C -2,9 C 74 % 1003,3 hPa 0,0 mm 7,2 km/h (2 Bft) W-SW 247 0 min -6,0 C 6,6 km/h (2 Bft)
06.03.2016 19:50 -2,2 C -2,9 C 74 % 1003,3 hPa 0,0 mm 6,3 km/h (2 Bft) S-SO 157 0 min -6,2 C 7,2 km/h (2 Bft)
06.03.2016 19:55 -2,3 C -2,9 C 74 % 1003,3 hPa 0,0 mm 4,8 km/h (1 Bft) SW 225 0 min -6,3 C 5,1 km/h (1 Bft)
06.03.2016 20:00 -2,4 C -2,9 C 74 % 1003,3 hPa 0,0 mm 4,5 km/h (1 Bft) S 180 0 min -6,4 C 9,2 km/h (2 Bft)
06.03.2016 20:05 -2,4 C -3,2 C 75 % 1003,3 hPa 0,0 mm 5,7 km/h (1 Bft) W-SW 247 0 min -6,2 C 7,7 km/h (2 Bft)
06.03.2016 20:10 -2,5 C -3,3 C 75 % 1003,3 hPa 0,0 mm 6,6 km/h (2 Bft) S 180 0 min -6,3 C 8,3 km/h (2 Bft)
06.03.2016 20:15 -2,7 C -3,5 C 76 % 1003,3 hPa 0,0 mm 6,6 km/h (2 Bft) SW 225 0 min -6,3 C 5,7 km/h (1 Bft)
06.03.2016 20:20 -2,9 C -3,5 C 76 % 1003,3 hPa 0,0 mm 5,1 km/h (1 Bft) SW 225 0 min -6,5 C 4,8 km/h (1 Bft)
06.03.2016 20:25 -3,0 C -3,6 C 76 % 1003,3 hPa 0,0 mm 4,8 km/h (1 Bft) O 90 0 min -6,6 C 6,9 km/h (2 Bft)
06.03.2016 20:30 -2,8 C -3,6 C 77 % 1003,4 hPa 0,0 mm 6,0 km/h (2 Bft) S-SW 202 0 min -6,3 C 9,8 km/h (2 Bft)
06.03.2016 20:35 -2,7 C -3,7 C 77 % 1003,4 hPa 0,0 mm 7,7 km/h (2 Bft) SW 225 0 min -6,2 C 13,1 km/h (3 Bft)
06.03.2016 20:40 -2,7 C -3,8 C 78 % 1003,4 hPa 0,0 mm 9,2 km/h (2 Bft) SW 225 0 min -6,0 C 12,2 km/h (2 Bft)
06.03.2016 20:45 -2,8 C -3,8 C 78 % 1003,4 hPa 0,0 mm 8,3 km/h (2 Bft) SW 225 0 min -6,1 C 0,0 km/h (0 Bft)
06.03.2016 20:50 -3,0 C -3,8 C 77 % 1003,5 hPa 0,0 mm 6,9 km/h (2 Bft) SW 225 0 min -6,4 C 8,9 km/h (2 Bft)
06.03.2016 20:55 -3,1 C -3,8 C 78 % 1003,5 hPa 0,0 mm 6,3 km/h (2 Bft) SO 135 0 min -6,4 C 5,1 km/h (1 Bft)
06.03.2016 21:00 -3,1 C -3,9 C 78 % 1003,5 hPa 0,0 mm 6,6 km/h (2 Bft) W-SW 247 0 min -6,4 C 11,9 km/h (2 Bft)
06.03.2016 21:05 -3,3 C -3,9 C 78 % 1003,5 hPa 0,0 mm 5,7 km/h (1 Bft) SW 225 0 min -6,6 C 0,0 km/h (0 Bft)
06.03.2016 21:10 -3,1 C -4,0 C 78 % 1003,5 hPa 0,0 mm 6,6 km/h (2 Bft) S-SW 202 0 min -6,4 C 8,9 km/h (2 Bft)
06.03.2016 21:15 -3,2 C -4,1 C 78 % 1003,5 hPa 0,0 mm 6,9 km/h (2 Bft) S-SO 157 0 min -6,5 C 9,8 km/h (2 Bft)
06.03.2016 21:20 -3,2 C -4,1 C 78 % 1003,5 hPa 0,0 mm 7,5 km/h (2 Bft) W-SW 247 0 min -6,5 C 7,2 km/h (2 Bft)
06.03.2016 21:24 -3,3 C -3,9 C 78 % 1003,5 hPa 0,0 mm 5,7 km/h (1 Bft) SO 135 0 min -6,6 C 3,3 km/h (1 Bft)
06.03.2016 21:29 -3,4 C -3,8 C 79 % 1003,6 hPa 0,0 mm 2,4 km/h (1 Bft) SO 135 0 min -6,5 C 0,0 km/h (0 Bft)
06.03.2016 21:34 -3,6 C -4,1 C 79 % 1003,6 hPa 0,0 mm 0,0 km/h (0 Bft) SO 135 0 min -6,7 C 0,0 km/h (0 Bft)
06.03.2016 21:39 -3,8 C -4,3 C 79 % 1003,6 hPa 0,0 mm 0,9 km/h (0 Bft) W-SW 247 0 min -6,9 C 6,3 km/h (2 Bft)
06.03.2016 21:44 -3,8 C -4,3 C 79 % 1003,6 hPa 0,0 mm 1,2 km/h (1 Bft) S 180 0 min -6,9 C 0,0 km/h (0 Bft)
06.03.2016 21:49 -3,7 C -4,3 C 79 % 1003,6 hPa 0,0 mm 1,2 km/h (1 Bft) SW 225 0 min -6,8 C 0,0 km/h (0 Bft)
06.03.2016 21:54 -3,7 C -4,3 C 79 % 1003,6 hPa 0,0 mm 0,9 km/h (0 Bft) SO 135 0 min -6,8 C 0,0 km/h (0 Bft)
06.03.2016 21:59 -3,7 C -4,3 C 79 % 1003,6 hPa 0,0 mm 0,3 km/h (0 Bft) SO 135 0 min -6,8 C 0,0 km/h (0 Bft)
06.03.2016 22:04 -3,8 C -4,4 C 79 % 1003,6 hPa 0,0 mm 0,0 km/h (0 Bft) NO 45 0 min -6,9 C 0,0 km/h (0 Bft)
06.03.2016 22:09 -4,2 C -4,7 C 79 % 1003,7 hPa 0,0 mm 0,0 km/h (0 Bft) N-NO 22 0 min -7,3 C 0,0 km/h (0 Bft)
06.03.2016 22:14 -4,8 C -5,3 C 78 % 1003,7 hPa 0,0 mm 0,0 km/h (0 Bft) O-SO 112 0 min -8,0 C 0,0 km/h (0 Bft)
06.03.2016 22:19 -4,8 C -5,4 C 78 % 1003,7 hPa 0,0 mm 0,0 km/h (0 Bft) O-SO 112 0 min -8,0 C 0,0 km/h (0 Bft)
06.03.2016 22:24 -4,8 C -5,4 C 79 % 1003,7 hPa 0,0 mm 0,0 km/h (0 Bft) O-NO 67 0 min -7,9 C 0,0 km/h (0 Bft)
06.03.2016 22:29 -4,6 C -5,3 C 80 % 1003,6 hPa 0,0 mm 0,0 km/h (0 Bft) O 90 0 min -7,5 C 0,0 km/h (0 Bft)
06.03.2016 22:34 -5,4 C -5,8 C 79 % 1003,6 hPa 0,0 mm 0,0 km/h (0 Bft) NW 315 0 min -8,5 C 0,0 km/h (0 Bft)
06.03.2016 22:39 -5,5 C -6,0 C 79 % 1003,6 hPa 0,0 mm 0,0 km/h (0 Bft) S-SO 157 0 min -8,5 C 0,0 km/h (0 Bft)
06.03.2016 22:44 -4,8 C -5,5 C 81 % 1003,6 hPa 0,0 mm 0,0 km/h (0 Bft) SO 135 0 min -7,5 C 0,0 km/h (0 Bft)
06.03.2016 22:49 -4,8 C -5,5 C 81 % 1003,8 hPa 0,0 mm 0,0 km/h (0 Bft) S 180 0 min -7,5 C 0,0 km/h (0 Bft)
06.03.2016 22:54 -4,8 C -5,5 C 82 % 1003,8 hPa 0,0 mm 0,0 km/h (0 Bft) NO 45 0 min -7,4 C 0,0 km/h (0 Bft)
06.03.2016 22:59 -4,8 C -5,5 C 82 % 1003,8 hPa 0,0 mm 0,0 km/h (0 Bft) N-NO 22 0 min -7,4 C 0,0 km/h (0 Bft)
06.03.2016 23:04 -5,5 C -6,0 C 81 % 1003,8 hPa 0,0 mm 0,0 km/h (0 Bft) W-SW 247 0 min -8,2 C 0,0 km/h (0 Bft)
06.03.2016 23:09 -5,3 C -5,8 C 81 % 1003,7 hPa 0,0 mm 2,4 km/h (1 Bft) SO 135 0 min -8,0 C 5,7 km/h (1 Bft)
06.03.2016 23:14 -5,0 C -5,6 C 82 % 1003,7 hPa 0,0 mm 3,9 km/h (1 Bft) S-SO 157 0 min -7,6 C 3,0 km/h (1 Bft)
06.03.2016 23:19 -4,9 C -5,4 C 83 % 1003,7 hPa 0,0 mm 2,1 km/h (1 Bft) S 180 0 min -7,3 C 0,0 km/h (0 Bft)
06.03.2016 23:24 -4,8 C -5,4 C 83 % 1003,7 hPa 0,0 mm 0,3 km/h (0 Bft) S-SW 202 0 min -7,2 C 0,0 km/h (0 Bft)
06.03.2016 23:29 -4,6 C -5,2 C 83 % 1003,5 hPa 0,0 mm 0,3 km/h (0 Bft) S 180 0 min -7,0 C 3,3 km/h (1 Bft)
06.03.2016 23:34 -4,5 C -5,1 C 83 % 1003,5 hPa 0,0 mm 0,6 km/h (0 Bft) SO 135 0 min -6,9 C 3,3 km/h (1 Bft)
06.03.2016 23:40 -4,9 C -5,3 C 82 % 1003,5 hPa 0,0 mm 0,9 km/h (0 Bft) O-SO 112 0 min -7,5 C 0,0 km/h (0 Bft)
06.03.2016 23:45 -5,2 C -5,7 C 82 % 1003,5 hPa 0,0 mm 0,3 km/h (0 Bft) O 90 0 min -7,8 C 0,0 km/h (0 Bft)
06.03.2016 23:50 -4,9 C -5,5 C 82 % 1003,4 hPa 0,0 mm 0,0 km/h (0 Bft) W-SW 247 0 min -7,5 C 0,0 km/h (0 Bft)
06.03.2016 23:55 -4,8 C -5,4 C 82 % 1003,4 hPa 0,0 mm 0,0 km/h (0 Bft) O-NO 67 0 min -7,4 C 0,0 km/h (0 Bft)
_ Min-Zeit 23:04 23:04 15:45 00:25 - 23:55 - - - 22:39 23:55
Minimum _ -5,5 C -6,0 C 59 % 997,5 hPa - 0,0 km/h (0 Bft) - - - -8,5 C 0,0 km/h (0 Bft)
_ Max-Zeit 14:30 13:40 02:40 12:25 12:35 12:20 - - 16:27 02:40 11:04
Maximum _ 4,8 C 11,0 C 91 % 1005,1 hPa 0,7 mm 12,8 km/h
N-NW (3 Bft)
- - 5 min -1,3 C 28,0 km/h
SO (4 Bft)
Durchschnitt _ -0,4 C 0,6 C 78 % 1001,8 hPa #4,1 mm 3,2 km/h (1 Bft) W-SW - #1:01 h -3,8 C 4,3 km/h (1 Bft)